Paw Paw, Michigan
Current Conditions -  °F | °C
As of 1:53 AM on Saturday 29 Nov 2014 (Local Time) from KAZO Reporting Station
Overcast Overcast  
Wind Chill: 25°   Ceiling: 10000
Heat Index: 32°   Visibility: 10mi
Dew Point: 22°   Wind: 8mph
Humidity: 66%   Direction: 170°S
Pressure: 29.95"   Gusts: NA
Location:  42.22°N, 85.89°W
Report Text: KAZO 290653Z AUTO 17007KT 10SM OVC100 00/M06 A2995 RMK AO2 SLP153 T00001056
Loading
Personal Weather Stations






























Interactive Weather Map New forecast layout! Learn more

10-Day Weather Forecast

Advertisements
Track Severe Weather on mobile